IBE0774 EDDH-LEMD
Flight info
| Callsign | IBE0774 |
|---|---|
| Flight time | N/A |
| Altitude | 38000 |
| Route | HABFU1C/05 HABFU Y348 MAWEQ DCT IDOSA DCT TOLVU/N0443F390 DCT RAPOR DCT GIMER DCT AHVEC UN857 RESMI DCT DEKOD UN857 DISAK DCT ARKIP DCT ARNAV DCT LMG DCT UVELI DCT OSMOB DCT VAVIX DCT NETUK N857 ALEPO DCT VASUM N857 BANEV |
| Aircraft | A20N/M-SDE2E3FGHIRWXY/LB1 |
Departure
| Time | 2026-05-06 14:52 |
|---|---|
| Airport | Hamburg Helmut Schmidt Airport (EDDH) |
Arrival
| Time | N/A |
|---|---|
| Airport | Adolfo Suárez Madrid–Barajas Airport (LEMD) |
| Time | Latitude | Longitude | Altitude | Speed | Heading |
|---|---|---|---|---|---|
| 2026-05-06 14:04 | 53.63334 | 10.00354 | 46 ft | 0 kts | 86° |
| 2026-05-06 14:28 | 53.63333 | 10.00328 | 46 ft | 4 kts | 86° |
| 2026-05-06 14:29 | 53.63332 | 10.00289 | 45 ft | 2 kts | 86° |
| 2026-05-06 14:29 | 53.63330 | 10.00250 | 45 ft | 4 kts | 80° |
| 2026-05-06 14:29 | 53.63321 | 10.00208 | 44 ft | 4 kts | 57° |
| 2026-05-06 14:29 | 53.63309 | 10.00174 | 41 ft | 4 kts | 104° |
| 2026-05-06 14:30 | 53.63312 | 10.00169 | 41 ft | 4 kts | 176° |
| 2026-05-06 14:30 | 53.63333 | 10.00166 | 42 ft | 0 kts | 175° |
| 2026-05-06 14:32 | 53.63332 | 10.00166 | 41 ft | 1 kts | 175° |
| 2026-05-06 14:32 | 53.63310 | 10.00169 | 41 ft | 5 kts | 175° |
| 2026-05-06 14:33 | 53.63258 | 10.00176 | 45 ft | 10 kts | 176° |
| 2026-05-06 14:33 | 53.63178 | 10.00185 | 45 ft | 13 kts | 175° |
| 2026-05-06 14:33 | 53.63101 | 10.00196 | 45 ft | 10 kts | 176° |
| 2026-05-06 14:33 | 53.63056 | 10.00168 | 44 ft | 9 kts | 211° |
| 2026-05-06 14:34 | 53.63025 | 10.00136 | 45 ft | 1 kts | 212° |
| 2026-05-06 14:34 | 53.63011 | 10.00121 | 45 ft | 0 kts | 213° |
| 2026-05-06 14:34 | 53.63009 | 10.00119 | 42 ft | 2 kts | 211° |
| 2026-05-06 14:34 | 53.62968 | 10.00121 | 45 ft | 11 kts | 166° |
| 2026-05-06 14:35 | 53.62904 | 10.00087 | 43 ft | 10 kts | 214° |
| 2026-05-06 14:35 | 53.62876 | 10.00050 | 44 ft | 3 kts | 224° |
| 2026-05-06 14:35 | 53.62867 | 10.00030 | 46 ft | 0 kts | 238° |
| 2026-05-06 14:44 | 53.62861 | 10.00013 | 43 ft | 3 kts | 240° |
| 2026-05-06 14:44 | 53.62848 | 9.99971 | 46 ft | 5 kts | 242° |
| 2026-05-06 14:45 | 53.62840 | 9.99945 | 46 ft | 0 kts | 244° |
| 2026-05-06 14:49 | 53.62837 | 9.99937 | 47 ft | 2 kts | 244° |
| 2026-05-06 14:49 | 53.62827 | 9.99900 | 47 ft | 9 kts | 244° |
| 2026-05-06 14:49 | 53.62833 | 9.99775 | 45 ft | 13 kts | 319° |
| 2026-05-06 14:49 | 53.62862 | 9.99751 | 47 ft | 0 kts | 331° |
| 2026-05-06 14:51 | 53.62905 | 9.99710 | 47 ft | 31 kts | 331° |
| 2026-05-06 14:52 | 53.63313 | 9.99356 | 46 ft | 97 kts | 333° |
| 2026-05-06 14:52 | 53.64071 | 9.98700 | 43 ft | 145 kts | 333° |
| 2026-05-06 14:52 | 53.65026 | 9.97820 | 393 ft | 157 kts | 334° |
| 2026-05-06 14:52 | 53.65973 | 9.96843 | 1033 ft | 162 kts | 330° |
| 2026-05-06 14:53 | 53.66878 | 9.95723 | 1602 ft | 164 kts | 327° |
| 2026-05-06 14:53 | 53.67863 | 9.94742 | 2029 ft | 172 kts | 343° |
| 2026-05-06 14:53 | 53.69034 | 9.93994 | 2412 ft | 188 kts | 346° |
| 2026-05-06 14:53 | 53.70316 | 9.93120 | 2825 ft | 211 kts | 335° |
| 2026-05-06 14:54 | 53.71348 | 9.91256 | 3482 ft | 232 kts | 299° |
| 2026-05-06 14:54 | 53.71641 | 9.88561 | 4493 ft | 238 kts | 264° |
| 2026-05-06 14:54 | 53.71228 | 9.85817 | 5387 ft | 249 kts | 249° |
| 2026-05-06 14:54 | 53.70525 | 9.83016 | 6020 ft | 271 kts | 246° |
| 2026-05-06 14:55 | 53.69735 | 9.80016 | 6659 ft | 287 kts | 247° |
| 2026-05-06 14:55 | 53.69008 | 9.76864 | 7717 ft | 285 kts | 250° |
| 2026-05-06 14:55 | 53.68349 | 9.73713 | 8766 ft | 288 kts | 251° |
| 2026-05-06 14:55 | 53.67709 | 9.70496 | 9359 ft | 290 kts | 250° |
| 2026-05-06 14:56 | 53.67058 | 9.67221 | 9865 ft | 300 kts | 251° |
| 2026-05-06 14:56 | 53.66399 | 9.63834 | 10544 ft | 314 kts | 251° |
| 2026-05-06 14:56 | 53.65567 | 9.60279 | 10889 ft | 336 kts | 239° |
| 2026-05-06 14:56 | 53.64072 | 9.57196 | 11564 ft | 342 kts | 218° |
| 2026-05-06 14:57 | 53.62083 | 9.55033 | 12494 ft | 342 kts | 207° |
| 2026-05-06 14:57 | 53.59988 | 9.53109 | 13484 ft | 342 kts | 207° |
| 2026-05-06 14:57 | 53.57916 | 9.51219 | 14313 ft | 344 kts | 207° |
| 2026-05-06 14:57 | 53.55803 | 9.49294 | 15093 ft | 348 kts | 207° |
| 2026-05-06 14:58 | 53.53666 | 9.47345 | 15848 ft | 351 kts | 207° |
| 2026-05-06 14:58 | 53.51513 | 9.45380 | 16678 ft | 353 kts | 208° |
| 2026-05-06 14:58 | 53.49340 | 9.43398 | 17465 ft | 358 kts | 208° |
| 2026-05-06 14:58 | 53.47135 | 9.41386 | 18259 ft | 362 kts | 208° |
| 2026-05-06 14:59 | 53.44912 | 9.39362 | 18929 ft | 366 kts | 208° |
| 2026-05-06 14:59 | 53.42661 | 9.37317 | 19550 ft | 370 kts | 208° |
| 2026-05-06 14:59 | 53.40384 | 9.35250 | 20199 ft | 374 kts | 208° |
| 2026-05-06 14:59 | 53.38083 | 9.33164 | 20839 ft | 377 kts | 208° |
| 2026-05-06 15:00 | 53.35760 | 9.31060 | 21411 ft | 382 kts | 208° |
| 2026-05-06 15:00 | 53.33359 | 9.29093 | 21980 ft | 387 kts | 202° |
| 2026-05-06 15:00 | 53.30805 | 9.27627 | 22620 ft | 388 kts | 195° |
| 2026-05-06 15:00 | 53.28188 | 9.26697 | 23290 ft | 390 kts | 189° |
| 2026-05-06 15:01 | 53.25492 | 9.25922 | 23686 ft | 397 kts | 189° |
| 2026-05-06 15:01 | 53.22761 | 9.25120 | 23831 ft | 399 kts | 189° |
| 2026-05-06 15:01 | 53.20018 | 9.24306 | 23874 ft | 399 kts | 189° |
| 2026-05-06 15:01 | 53.17295 | 9.23496 | 23872 ft | 396 kts | 190° |
| 2026-05-06 15:02 | 53.14580 | 9.22688 | 23874 ft | 396 kts | 189° |
| 2026-05-06 15:02 | 53.11863 | 9.21881 | 23875 ft | 398 kts | 189° |
| 2026-05-06 15:02 | 53.09129 | 9.21072 | 23871 ft | 399 kts | 189° |
| 2026-05-06 15:02 | 53.06386 | 9.20260 | 23871 ft | 400 kts | 189° |
| 2026-05-06 15:03 | 53.03662 | 9.19453 | 23873 ft | 396 kts | 189° |
| 2026-05-06 15:03 | 53.00949 | 9.18651 | 23874 ft | 397 kts | 189° |
| 2026-05-06 15:03 | 52.98224 | 9.17843 | 23874 ft | 398 kts | 191° |
| 2026-05-06 15:03 | 52.95536 | 9.16709 | 23871 ft | 398 kts | 197° |
| 2026-05-06 15:04 | 52.92969 | 9.15059 | 23871 ft | 400 kts | 204° |
| 2026-05-06 15:04 | 52.90505 | 9.12950 | 23878 ft | 397 kts | 207° |
| 2026-05-06 15:04 | 52.88062 | 9.10779 | 23871 ft | 403 kts | 207° |
| 2026-05-06 15:04 | 52.85586 | 9.08593 | 23871 ft | 404 kts | 207° |
| 2026-05-06 15:05 | 52.83105 | 9.06413 | 23867 ft | 401 kts | 207° |
| 2026-05-06 15:05 | 52.80640 | 9.04253 | 23864 ft | 400 kts | 206° |
| 2026-05-06 15:05 | 52.78169 | 9.02098 | 23907 ft | 404 kts | 207° |
| 2026-05-06 15:05 | 52.75661 | 8.99915 | 24333 ft | 409 kts | 207° |
| 2026-05-06 15:06 | 52.73151 | 8.97728 | 25004 ft | 407 kts | 207° |
| 2026-05-06 15:06 | 52.70669 | 8.95569 | 25514 ft | 410 kts | 207° |
| 2026-05-06 15:06 | 52.68130 | 8.93366 | 25915 ft | 415 kts | 207° |
| 2026-05-06 15:06 | 52.65552 | 8.91132 | 26324 ft | 419 kts | 208° |
| 2026-05-06 15:07 | 52.62975 | 8.88899 | 26853 ft | 420 kts | 208° |
| 2026-05-06 15:07 | 52.60379 | 8.86649 | 27262 ft | 424 kts | 208° |
| 2026-05-06 15:07 | 52.57755 | 8.84378 | 27646 ft | 428 kts | 208° |
| 2026-05-06 15:07 | 52.55114 | 8.82095 | 28078 ft | 430 kts | 208° |
| 2026-05-06 15:08 | 52.52456 | 8.79802 | 28528 ft | 432 kts | 208° |
| 2026-05-06 15:08 | 52.49782 | 8.77498 | 28859 ft | 436 kts | 208° |
| 2026-05-06 15:08 | 52.47074 | 8.75170 | 29228 ft | 439 kts | 208° |
| 2026-05-06 15:08 | 52.44348 | 8.72828 | 29624 ft | 442 kts | 208° |
| 2026-05-06 15:09 | 52.41660 | 8.70525 | 30084 ft | 441 kts | 208° |
| 2026-05-06 15:09 | 52.38929 | 8.68186 | 30444 ft | 443 kts | 208° |
| 2026-05-06 15:09 | 52.36189 | 8.65843 | 30837 ft | 443 kts | 208° |
| 2026-05-06 15:09 | 52.33453 | 8.63507 | 31259 ft | 443 kts | 208° |
| 2026-05-06 15:10 | 52.30718 | 8.61174 | 31712 ft | 442 kts | 208° |
| 2026-05-06 15:10 | 52.28003 | 8.58834 | 32254 ft | 439 kts | 210° |
| 2026-05-06 15:10 | 52.25463 | 8.56202 | 32765 ft | 436 kts | 215° |
| 2026-05-06 15:10 | 52.22992 | 8.53363 | 33290 ft | 433 kts | 216° |
| 2026-05-06 15:11 | 52.20539 | 8.50546 | 33815 ft | 429 kts | 215° |
| 2026-05-06 15:11 | 52.18109 | 8.47761 | 34286 ft | 425 kts | 215° |
| 2026-05-06 15:11 | 52.15688 | 8.44994 | 34590 ft | 426 kts | 215° |
| 2026-05-06 15:11 | 52.13262 | 8.42226 | 34884 ft | 426 kts | 215° |
| 2026-05-06 15:12 | 52.10834 | 8.39461 | 35195 ft | 426 kts | 215° |
| 2026-05-06 15:12 | 52.08399 | 8.36694 | 35499 ft | 425 kts | 215° |
| 2026-05-06 15:12 | 52.05961 | 8.33930 | 35693 ft | 428 kts | 215° |
| 2026-05-06 15:12 | 52.03512 | 8.31156 | 35985 ft | 429 kts | 215° |
| 2026-05-06 15:13 | 52.01058 | 8.28381 | 36281 ft | 428 kts | 215° |
| 2026-05-06 15:13 | 51.98612 | 8.25618 | 36584 ft | 427 kts | 215° |
| 2026-05-06 15:13 | 51.96180 | 8.22876 | 36900 ft | 425 kts | 215° |
| 2026-05-06 15:13 | 51.93750 | 8.20139 | 37145 ft | 425 kts | 215° |
| 2026-05-06 15:14 | 51.91348 | 8.17438 | 37379 ft | 425 kts | 215° |
| 2026-05-06 15:14 | 51.88917 | 8.14708 | 37616 ft | 425 kts | 215° |
| 2026-05-06 15:14 | 51.86478 | 8.11972 | 37805 ft | 425 kts | 215° |
| 2026-05-06 15:15 | 51.81619 | 8.06533 | 37845 ft | 423 kts | 215° |
| 2026-05-06 15:15 | 51.76775 | 8.01125 | 37844 ft | 423 kts | 215° |
| 2026-05-06 15:16 | 51.71922 | 7.95721 | 37830 ft | 424 kts | 215° |
| 2026-05-06 15:16 | 51.67102 | 7.90368 | 37829 ft | 424 kts | 215° |
| 2026-05-06 15:17 | 51.62243 | 7.84987 | 37833 ft | 424 kts | 214° |
| 2026-05-06 15:17 | 51.57377 | 7.79611 | 37837 ft | 424 kts | 214° |
| 2026-05-06 15:18 | 51.52506 | 7.74246 | 37834 ft | 423 kts | 214° |
| 2026-05-06 15:18 | 51.47635 | 7.68893 | 37821 ft | 424 kts | 214° |
| 2026-05-06 15:19 | 51.42799 | 7.63593 | 37825 ft | 424 kts | 214° |
| 2026-05-06 15:19 | 51.37915 | 7.58254 | 37824 ft | 425 kts | 214° |
| 2026-05-06 15:20 | 51.33042 | 7.52942 | 37811 ft | 426 kts | 214° |
| 2026-05-06 15:20 | 51.28129 | 7.47601 | 37835 ft | 426 kts | 214° |
| 2026-05-06 15:21 | 51.23224 | 7.42282 | 37838 ft | 426 kts | 214° |
| 2026-05-06 15:21 | 51.18310 | 7.36967 | 37841 ft | 426 kts | 214° |
| 2026-05-06 15:22 | 51.13399 | 7.31669 | 37839 ft | 425 kts | 214° |
| 2026-05-06 15:22 | 51.08496 | 7.26392 | 37836 ft | 425 kts | 214° |
| 2026-05-06 15:23 | 51.03635 | 7.21175 | 37823 ft | 424 kts | 214° |
| 2026-05-06 15:23 | 50.98738 | 7.15933 | 37831 ft | 424 kts | 214° |
| 2026-05-06 15:24 | 50.93833 | 7.10697 | 37824 ft | 424 kts | 214° |
| 2026-05-06 15:24 | 50.88925 | 7.05472 | 37823 ft | 425 kts | 214° |
| 2026-05-06 15:25 | 50.84011 | 7.00254 | 37813 ft | 425 kts | 214° |
| 2026-05-06 15:25 | 50.79127 | 6.95078 | 37811 ft | 425 kts | 214° |
| 2026-05-06 15:26 | 50.74211 | 6.89884 | 37835 ft | 425 kts | 214° |
| 2026-05-06 15:26 | 50.69289 | 6.84696 | 37843 ft | 425 kts | 214° |
| 2026-05-06 15:27 | 50.64359 | 6.79511 | 37854 ft | 426 kts | 214° |
| 2026-05-06 15:27 | 50.59422 | 6.74336 | 37838 ft | 426 kts | 214° |
| 2026-05-06 15:28 | 50.54508 | 6.69197 | 37839 ft | 426 kts | 213° |
| 2026-05-06 15:28 | 50.49563 | 6.64038 | 37839 ft | 426 kts | 213° |
| 2026-05-06 15:29 | 50.44604 | 6.58877 | 37829 ft | 426 kts | 213° |
| 2026-05-06 15:29 | 50.39678 | 6.53765 | 37821 ft | 426 kts | 213° |
| 2026-05-06 15:30 | 50.34728 | 6.48641 | 37826 ft | 427 kts | 213° |
| 2026-05-06 15:30 | 50.29761 | 6.43514 | 37827 ft | 427 kts | 213° |
| 2026-05-06 15:31 | 50.24796 | 6.38399 | 37820 ft | 427 kts | 213° |
| 2026-05-06 15:31 | 50.20670 | 6.34156 | 37825 ft | 427 kts | 213° |
| 2026-05-06 15:32 | 50.13209 | 6.26513 | 37823 ft | 428 kts | 213° |
| 2026-05-06 15:32 | 50.08232 | 6.21429 | 37848 ft | 428 kts | 213° |
| 2026-05-06 15:33 | 50.03243 | 6.16346 | 37856 ft | 428 kts | 213° |
| 2026-05-06 15:33 | 49.98265 | 6.11287 | 37848 ft | 428 kts | 213° |
| 2026-05-06 15:34 | 49.93266 | 6.06220 | 37843 ft | 429 kts | 213° |
| 2026-05-06 15:34 | 49.88257 | 6.01155 | 37843 ft | 429 kts | 213° |
| 2026-05-06 15:35 | 49.83257 | 5.96111 | 37844 ft | 429 kts | 213° |
| 2026-05-06 15:35 | 49.78314 | 5.91014 | 37850 ft | 429 kts | 218° |
| 2026-05-06 15:36 | 49.74222 | 5.84343 | 37835 ft | 430 kts | 235° |
| 2026-05-06 15:36 | 49.71601 | 5.76045 | 37829 ft | 432 kts | 249° |
| 2026-05-06 15:37 | 49.69595 | 5.67291 | 37837 ft | 432 kts | 249° |
| 2026-05-06 15:37 | 49.67558 | 5.58548 | 37856 ft | 433 kts | 249° |
| 2026-05-06 15:38 | 49.65521 | 5.49864 | 37845 ft | 433 kts | 249° |
| 2026-05-06 15:38 | 49.63459 | 5.41106 | 37860 ft | 434 kts | 249° |
| 2026-05-06 15:39 | 49.61433 | 5.32318 | 37851 ft | 435 kts | 250° |
| 2026-05-06 15:39 | 49.59568 | 5.23441 | 37867 ft | 436 kts | 251° |
| 2026-05-06 15:40 | 49.57837 | 5.14530 | 37864 ft | 436 kts | 254° |
| 2026-05-06 15:40 | 49.56305 | 5.05483 | 37867 ft | 437 kts | 254° |
| 2026-05-06 15:41 | 49.54724 | 4.96421 | 37871 ft | 437 kts | 253° |
| 2026-05-06 15:41 | 49.53111 | 4.87390 | 37870 ft | 438 kts | 253° |
| 2026-05-06 15:42 | 49.51483 | 4.78344 | 37874 ft | 438 kts | 253° |
| 2026-05-06 15:42 | 49.49858 | 4.69359 | 37875 ft | 438 kts | 253° |
| 2026-05-06 15:43 | 49.48214 | 4.60314 | 37880 ft | 439 kts | 253° |
| 2026-05-06 15:43 | 49.46563 | 4.51274 | 37884 ft | 440 kts | 253° |
| 2026-05-06 15:44 | 49.44903 | 4.42229 | 37881 ft | 439 kts | 253° |
| 2026-05-06 15:44 | 49.43237 | 4.33198 | 37877 ft | 439 kts | 253° |
| 2026-05-06 15:45 | 49.41564 | 4.24170 | 37876 ft | 439 kts | 253° |
| 2026-05-06 15:45 | 49.39894 | 4.15201 | 37897 ft | 440 kts | 253° |
| 2026-05-06 15:46 | 49.39048 | 4.10678 | 38093 ft | 441 kts | 253° |
| 2026-05-06 15:46 | 49.38198 | 4.06147 | 38374 ft | 440 kts | 252° |
| 2026-05-06 15:46 | 49.37219 | 4.01704 | 38596 ft | 439 kts | 248° |
| 2026-05-06 15:46 | 49.36028 | 3.97401 | 38775 ft | 438 kts | 244° |
| 2026-05-06 15:47 | 49.33046 | 3.89256 | 38885 ft | 437 kts | 235° |
| 2026-05-06 15:47 | 49.29662 | 3.81526 | 38881 ft | 436 kts | 236° |
| 2026-05-06 15:48 | 49.26286 | 3.73772 | 38885 ft | 437 kts | 236° |
| 2026-05-06 15:48 | 49.22913 | 3.66046 | 38883 ft | 437 kts | 236° |
| 2026-05-06 15:49 | 49.19555 | 3.58382 | 38879 ft | 437 kts | 236° |
| 2026-05-06 15:49 | 49.16164 | 3.50668 | 38891 ft | 437 kts | 236° |
| 2026-05-06 15:50 | 49.12772 | 3.42972 | 38892 ft | 436 kts | 236° |
| 2026-05-06 15:50 | 49.09374 | 3.35285 | 38888 ft | 436 kts | 236° |
| 2026-05-06 15:51 | 49.05993 | 3.27658 | 38907 ft | 437 kts | 236° |
| 2026-05-06 15:51 | 49.02575 | 3.19969 | 38890 ft | 437 kts | 235° |
| 2026-05-06 15:52 | 48.99152 | 3.12291 | 38899 ft | 437 kts | 235° |
| 2026-05-06 15:52 | 48.95733 | 3.04649 | 38895 ft | 437 kts | 236° |
| 2026-05-06 15:53 | 48.92310 | 2.97016 | 38903 ft | 437 kts | 236° |
| 2026-05-06 15:53 | 48.88903 | 2.89438 | 38896 ft | 437 kts | 236° |
| 2026-05-06 15:54 | 48.85466 | 2.81815 | 38900 ft | 437 kts | 235° |
| 2026-05-06 15:54 | 48.82036 | 2.74229 | 38903 ft | 437 kts | 235° |
| 2026-05-06 15:55 | 48.78588 | 2.66625 | 38916 ft | 437 kts | 235° |
| 2026-05-06 15:55 | 48.75132 | 2.59029 | 38905 ft | 438 kts | 235° |
| 2026-05-06 15:56 | 48.71687 | 2.51477 | 38906 ft | 438 kts | 235° |
| 2026-05-06 15:56 | 48.68215 | 2.43884 | 38910 ft | 439 kts | 235° |
| 2026-05-06 15:57 | 48.64736 | 2.36297 | 38913 ft | 439 kts | 235° |
| 2026-05-06 15:57 | 48.61234 | 2.28695 | 38915 ft | 439 kts | 234° |
| 2026-05-06 15:58 | 48.57001 | 2.22182 | 38914 ft | 441 kts | 217° |
| 2026-05-06 15:58 | 48.51655 | 2.17799 | 38916 ft | 443 kts | 200° |
| 2026-05-06 15:59 | 48.45652 | 2.15581 | 38918 ft | 445 kts | 193° |
| 2026-05-06 15:59 | 48.39601 | 2.13634 | 38907 ft | 444 kts | 193° |
| 2026-05-06 16:00 | 48.33547 | 2.11721 | 38905 ft | 444 kts | 191° |
| 2026-05-06 16:00 | 48.27418 | 2.10837 | 38907 ft | 447 kts | 182° |
| 2026-05-06 16:01 | 48.21213 | 2.11434 | 38909 ft | 448 kts | 173° |
| 2026-05-06 16:01 | 48.15014 | 2.12581 | 38921 ft | 449 kts | 178° |
| 2026-05-06 16:02 | 48.08764 | 2.12356 | 38929 ft | 448 kts | 188° |
| 2026-05-06 16:02 | 48.02631 | 2.11146 | 38932 ft | 445 kts | 189° |
| 2026-05-06 16:03 | 47.96470 | 2.09941 | 38941 ft | 447 kts | 188° |
| 2026-05-06 16:03 | 47.90300 | 2.08760 | 38938 ft | 446 kts | 188° |
| 2026-05-06 16:04 | 47.84136 | 2.07586 | 38940 ft | 447 kts | 188° |
| 2026-05-06 16:04 | 47.77997 | 2.06419 | 38902 ft | 447 kts | 188° |
| 2026-05-06 16:05 | 47.71809 | 2.05247 | 38912 ft | 447 kts | 188° |
| 2026-05-06 16:05 | 47.65671 | 2.03986 | 38893 ft | 443 kts | 192° |
| 2026-05-06 16:06 | 47.59737 | 2.01602 | 38912 ft | 444 kts | 201° |
| 2026-05-06 16:06 | 47.53981 | 1.98244 | 38921 ft | 444 kts | 202° |
| 2026-05-06 16:07 | 47.48268 | 1.94907 | 38924 ft | 443 kts | 202° |
| 2026-05-06 16:07 | 47.42500 | 1.91572 | 38931 ft | 444 kts | 202° |
| 2026-05-06 16:08 | 47.36744 | 1.88255 | 38928 ft | 444 kts | 202° |
| 2026-05-06 16:08 | 47.31022 | 1.84966 | 38937 ft | 443 kts | 202° |
| 2026-05-06 16:09 | 47.25275 | 1.81670 | 38937 ft | 443 kts | 202° |
| 2026-05-06 16:09 | 47.19518 | 1.78376 | 38941 ft | 443 kts | 202° |
| 2026-05-06 16:10 | 47.13751 | 1.75123 | 38938 ft | 443 kts | 202° |
| 2026-05-06 16:10 | 47.08029 | 1.71907 | 38939 ft | 443 kts | 202° |
| 2026-05-06 16:11 | 47.02265 | 1.68670 | 38939 ft | 443 kts | 202° |
| 2026-05-06 16:11 | 46.96500 | 1.65440 | 38939 ft | 443 kts | 202° |
| 2026-05-06 16:12 | 46.90745 | 1.62223 | 38933 ft | 443 kts | 202° |
| 2026-05-06 16:12 | 46.85024 | 1.59031 | 38934 ft | 443 kts | 202° |
| 2026-05-06 16:13 | 46.79256 | 1.55821 | 38935 ft | 443 kts | 202° |
| 2026-05-06 16:13 | 46.73487 | 1.52618 | 38935 ft | 443 kts | 202° |
| 2026-05-06 16:14 | 46.67708 | 1.49416 | 38935 ft | 444 kts | 202° |
| 2026-05-06 16:14 | 46.61933 | 1.46225 | 38930 ft | 444 kts | 202° |
| 2026-05-06 16:15 | 46.56155 | 1.43039 | 38931 ft | 444 kts | 202° |
| 2026-05-06 16:15 | 46.50420 | 1.39884 | 38931 ft | 444 kts | 202° |
| 2026-05-06 16:16 | 46.44634 | 1.36707 | 38927 ft | 444 kts | 202° |
| 2026-05-06 16:16 | 46.38849 | 1.33539 | 38927 ft | 444 kts | 202° |
| 2026-05-06 16:17 | 46.33068 | 1.30380 | 38929 ft | 444 kts | 202° |
| 2026-05-06 16:17 | 46.27289 | 1.27230 | 38926 ft | 443 kts | 202° |
| 2026-05-06 16:18 | 46.21553 | 1.24109 | 38923 ft | 444 kts | 202° |
| 2026-05-06 16:18 | 46.15778 | 1.20974 | 38903 ft | 442 kts | 202° |
| 2026-05-06 16:19 | 46.10017 | 1.17855 | 38910 ft | 444 kts | 202° |
| 2026-05-06 16:19 | 46.05198 | 1.15250 | 38909 ft | 444 kts | 202° |
| 2026-05-06 16:20 | 45.99399 | 1.12123 | 38907 ft | 443 kts | 202° |
| 2026-05-06 16:20 | 45.93616 | 1.09012 | 38912 ft | 443 kts | 202° |
| 2026-05-06 16:21 | 45.87841 | 1.05910 | 38910 ft | 443 kts | 202° |
| 2026-05-06 16:21 | 45.82252 | 1.02232 | 38905 ft | 441 kts | 211° |
| 2026-05-06 16:22 | 45.77178 | 0.97335 | 38902 ft | 439 kts | 220° |
| 2026-05-06 16:22 | 45.72506 | 0.91704 | 38895 ft | 439 kts | 221° |
| 2026-05-06 16:23 | 45.67864 | 0.86126 | 38890 ft | 439 kts | 221° |
| 2026-05-06 16:23 | 45.63175 | 0.80531 | 38894 ft | 439 kts | 221° |
| 2026-05-06 16:24 | 45.58478 | 0.74944 | 38894 ft | 439 kts | 221° |
| 2026-05-06 16:24 | 45.53780 | 0.69368 | 38901 ft | 439 kts | 221° |
| 2026-05-06 16:25 | 45.49070 | 0.63790 | 38911 ft | 440 kts | 221° |
| 2026-05-06 16:25 | 45.44357 | 0.58221 | 38914 ft | 440 kts | 221° |
| 2026-05-06 16:26 | 45.39644 | 0.52664 | 38919 ft | 440 kts | 221° |
| 2026-05-06 16:26 | 45.34948 | 0.47140 | 38920 ft | 440 kts | 221° |
| 2026-05-06 16:27 | 45.30229 | 0.41601 | 38924 ft | 440 kts | 221° |
| 2026-05-06 16:27 | 45.25502 | 0.36065 | 38922 ft | 440 kts | 221° |
| 2026-05-06 16:28 | 45.20777 | 0.30544 | 38928 ft | 440 kts | 221° |
| 2026-05-06 16:28 | 45.16084 | 0.25072 | 38936 ft | 439 kts | 221° |
| 2026-05-06 16:29 | 45.11360 | 0.19576 | 38932 ft | 439 kts | 221° |
| 2026-05-06 16:29 | 45.06632 | 0.14087 | 38937 ft | 439 kts | 221° |
| 2026-05-06 16:30 | 45.02701 | 0.09532 | 38936 ft | 439 kts | 221° |
| 2026-05-06 16:30 | 44.97182 | 0.03155 | 39140 ft | 437 kts | 221° |
| 2026-05-06 16:31 | 44.94831 | 0.00442 | 39253 ft | 437 kts | 221° |
| 2026-05-06 16:31 | 44.92492 | -0.02253 | 39368 ft | 437 kts | 221° |
| 2026-05-06 16:31 | 44.87809 | -0.07641 | 39302 ft | 434 kts | 221° |
| 2026-05-06 16:32 | 44.85468 | -0.10330 | 39038 ft | 432 kts | 221° |
| 2026-05-06 16:32 | 44.83128 | -0.13016 | 38963 ft | 436 kts | 221° |
| 2026-05-06 16:32 | 44.78397 | -0.18437 | 38946 ft | 438 kts | 221° |
| 2026-05-06 16:33 | 44.73667 | -0.23844 | 38954 ft | 438 kts | 221° |
| 2026-05-06 16:34 | 44.66563 | -0.31942 | 38964 ft | 438 kts | 221° |
| 2026-05-06 16:34 | 44.61642 | -0.36995 | 38952 ft | 439 kts | 216° |
| 2026-05-06 16:35 | 44.56630 | -0.41806 | 38950 ft | 438 kts | 216° |
| 2026-05-06 16:35 | 44.51590 | -0.46649 | 38953 ft | 438 kts | 216° |
| 2026-05-06 16:36 | 44.46564 | -0.51471 | 38963 ft | 438 kts | 216° |
| 2026-05-06 16:36 | 44.41563 | -0.56258 | 38947 ft | 438 kts | 216° |
| 2026-05-06 16:37 | 44.36540 | -0.61056 | 38968 ft | 437 kts | 216° |
| 2026-05-06 16:37 | 44.31500 | -0.65861 | 38972 ft | 437 kts | 216° |
| 2026-05-06 16:38 | 44.26498 | -0.70612 | 38974 ft | 437 kts | 216° |
| 2026-05-06 16:38 | 44.21417 | -0.75290 | 38977 ft | 437 kts | 215° |